sensor_id;sensor_type;location;lat;lon;timestamp;temperature;humidity
1175;DHT22;576;48.418;10.074;2023-09-19T00:01:08;22.50;80.00
1175;DHT22;576;48.418;10.074;2023-09-19T00:03:40;22.50;79.90
1175;DHT22;576;48.418;10.074;2023-09-19T00:06:09;22.60;79.70
1175;DHT22;576;48.418;10.074;2023-09-19T00:08:37;22.60;79.50
1175;DHT22;576;48.418;10.074;2023-09-19T00:11:07;22.60;79.50
1175;DHT22;576;48.418;10.074;2023-09-19T00:13:37;22.70;79.30
1175;DHT22;576;48.418;10.074;2023-09-19T00:16:09;22.70;79.40
1175;DHT22;576;48.418;10.074;2023-09-19T00:18:40;22.60;79.20
1175;DHT22;576;48.418;10.074;2023-09-19T00:21:09;22.50;79.40
1175;DHT22;576;48.418;10.074;2023-09-19T00:23:38;22.30;80.20
1175;DHT22;576;48.418;10.074;2023-09-19T00:26:07;22.20;80.70
1175;DHT22;576;48.418;10.074;2023-09-19T00:28:36;22.20;80.50
1175;DHT22;576;48.418;10.074;2023-09-19T00:31:04;22.20;80.60
1175;DHT22;576;48.418;10.074;2023-09-19T00:33:35;22.20;80.80
1175;DHT22;576;48.418;10.074;2023-09-19T00:36:06;22.10;79.90
1175;DHT22;576;48.418;10.074;2023-09-19T00:38:34;22.10;80.10
1175;DHT22;576;48.418;10.074;2023-09-19T00:41:03;22.00;80.40
1175;DHT22;576;48.418;10.074;2023-09-19T00:43:31;21.90;80.20
1175;DHT22;576;48.418;10.074;2023-09-19T00:46:02;21.80;80.40
1175;DHT22;576;48.418;10.074;2023-09-19T00:48:31;21.70;80.30
1175;DHT22;576;48.418;10.074;2023-09-19T00:51:03;21.60;80.60
1175;DHT22;576;48.418;10.074;2023-09-19T00:53:34;21.40;81.20
1175;DHT22;576;48.418;10.074;2023-09-19T00:56:03;21.40;81.60
1175;DHT22;576;48.418;10.074;2023-09-19T00:58:32;21.40;81.60
1175;DHT22;576;48.418;10.074;2023-09-19T01:01:02;21.50;81.60
1175;DHT22;576;48.418;10.074;2023-09-19T01:03:35;21.50;81.30
1175;DHT22;576;48.418;10.074;2023-09-19T01:06:04;21.60;81.20
1175;DHT22;576;48.418;10.074;2023-09-19T01:08:35;21.70;81.30
1175;DHT22;576;48.418;10.074;2023-09-19T01:11:11;21.80;80.90
1175;DHT22;576;48.418;10.074;2023-09-19T01:13:50;21.80;80.90
1175;DHT22;576;48.418;10.074;2023-09-19T01:16:32;22.00;80.60
1175;DHT22;576;48.418;10.074;2023-09-19T01:19:12;22.20;80.30
1175;DHT22;576;48.418;10.074;2023-09-19T01:21:55;22.30;80.20
1175;DHT22;576;48.418;10.074;2023-09-19T01:24:55;22.30;80.10
1175;DHT22;576;48.418;10.074;2023-09-19T01:27:47;22.40;79.90
1175;DHT22;576;48.418;10.074;2023-09-19T01:30:26;22.40;79.40
1175;DHT22;576;48.418;10.074;2023-09-19T01:32:56;22.40;79.70
1175;DHT22;576;48.418;10.074;2023-09-19T01:35:26;22.30;79.90
1175;DHT22;576;48.418;10.074;2023-09-19T01:37:54;22.30;80.10
1175;DHT22;576;48.418;10.074;2023-09-19T01:40:23;22.30;80.10
1175;DHT22;576;48.418;10.074;2023-09-19T01:42:56;22.40;80.10
1175;DHT22;576;48.418;10.074;2023-09-19T01:45:34;22.50;79.60
1175;DHT22;576;48.418;10.074;2023-09-19T01:48:28;22.40;79.80
1175;DHT22;576;48.418;10.074;2023-09-19T01:51:00;22.40;79.90
1175;DHT22;576;48.418;10.074;2023-09-19T01:53:34;22.40;79.80
1175;DHT22;576;48.418;10.074;2023-09-19T01:56:05;22.40;79.90
1175;DHT22;576;48.418;10.074;2023-09-19T01:58:42;22.40;80.00
1175;DHT22;576;48.418;10.074;2023-09-19T02:01:16;22.40;79.80
1175;DHT22;576;48.418;10.074;2023-09-19T02:03:46;22.40;80.00
1175;DHT22;576;48.418;10.074;2023-09-19T02:06:16;22.40;79.90
1175;DHT22;576;48.418;10.074;2023-09-19T02:08:47;22.50;79.90
1175;DHT22;576;48.418;10.074;2023-09-19T02:11:17;22.60;79.40
1175;DHT22;576;48.418;10.074;2023-09-19T02:13:45;22.60;79.30
1175;DHT22;576;48.418;10.074;2023-09-19T02:16:16;22.70;79.00
1175;DHT22;576;48.418;10.074;2023-09-19T02:18:47;22.60;78.90
1175;DHT22;576;48.418;10.074;2023-09-19T02:21:15;22.50;79.60
1175;DHT22;576;48.418;10.074;2023-09-19T02:23:44;22.40;79.60
1175;DHT22;576;48.418;10.074;2023-09-19T02:26:14;22.40;79.70
1175;DHT22;576;48.418;10.074;2023-09-19T02:28:43;22.50;79.50
1175;DHT22;576;48.418;10.074;2023-09-19T02:31:12;22.50;79.60
1175;DHT22;576;48.418;10.074;2023-09-19T02:33:42;22.40;79.60
1175;DHT22;576;48.418;10.074;2023-09-19T02:36:10;22.30;79.90
1175;DHT22;576;48.418;10.074;2023-09-19T02:38:39;22.30;80.20
1175;DHT22;576;48.418;10.074;2023-09-19T02:41:07;22.30;79.80
1175;DHT22;576;48.418;10.074;2023-09-19T02:43:37;22.30;80.10
1175;DHT22;576;48.418;10.074;2023-09-19T02:46:06;22.30;80.00
1175;DHT22;576;48.418;10.074;2023-09-19T02:48:34;22.30;80.20
1175;DHT22;576;48.418;10.074;2023-09-19T02:51:04;22.30;80.20
1175;DHT22;576;48.418;10.074;2023-09-19T02:53:32;22.30;80.10
1175;DHT22;576;48.418;10.074;2023-09-19T02:56:01;22.30;80.20
1175;DHT22;576;48.418;10.074;2023-09-19T02:58:30;22.20;80.30
1175;DHT22;576;48.418;10.074;2023-09-19T03:01:08;22.20;80.20
1175;DHT22;576;48.418;10.074;2023-09-19T03:03:38;22.10;80.20
1175;DHT22;576;48.418;10.074;2023-09-19T03:06:09;22.10;80.50
1175;DHT22;576;48.418;10.074;2023-09-19T03:08:37;22.20;80.20
1175;DHT22;576;48.418;10.074;2023-09-19T03:11:06;22.10;80.10
1175;DHT22;576;48.418;10.074;2023-09-19T03:13:40;22.10;80.10
1175;DHT22;576;48.418;10.074;2023-09-19T03:16:10;22.10;80.30
1175;DHT22;576;48.418;10.074;2023-09-19T03:18:42;22.10;80.50
1175;DHT22;576;48.418;10.074;2023-09-19T03:21:11;22.20;80.30
1175;DHT22;576;48.418;10.074;2023-09-19T03:23:41;22.20;79.90
1175;DHT22;576;48.418;10.074;2023-09-19T03:26:10;22.20;80.10
1175;DHT22;576;48.418;10.074;2023-09-19T03:28:39;22.20;80.00
1175;DHT22;576;48.418;10.074;2023-09-19T03:31:09;22.20;80.30
1175;DHT22;576;48.418;10.074;2023-09-19T03:33:38;22.30;79.90
1175;DHT22;576;48.418;10.074;2023-09-19T03:36:06;22.30;79.80
1175;DHT22;576;48.418;10.074;2023-09-19T03:38:36;22.30;79.90
1175;DHT22;576;48.418;10.074;2023-09-19T03:41:04;22.30;79.70
1175;DHT22;576;48.418;10.074;2023-09-19T03:43:35;22.30;79.90
1175;DHT22;576;48.418;10.074;2023-09-19T03:46:04;22.20;80.10
1175;DHT22;576;48.418;10.074;2023-09-19T03:48:35;22.20;79.70
1175;DHT22;576;48.418;10.074;2023-09-19T03:51:03;22.20;79.90
1175;DHT22;576;48.418;10.074;2023-09-19T03:53:31;22.10;80.10
1175;DHT22;576;48.418;10.074;2023-09-19T03:56:01;22.10;80.10
1175;DHT22;576;48.418;10.074;2023-09-19T03:58:32;22.00;80.10
1175;DHT22;576;48.418;10.074;2023-09-19T04:01:05;22.00;80.40
1175;DHT22;576;48.418;10.074;2023-09-19T04:03:33;21.90;80.40
1175;DHT22;576;48.418;10.074;2023-09-19T04:06:13;21.90;80.30
1175;DHT22;576;48.418;10.074;2023-09-19T04:08:41;21.90;80.30
1175;DHT22;576;48.418;10.074;2023-09-19T04:11:12;21.90;80.60
1175;DHT22;576;48.418;10.074;2023-09-19T04:13:41;21.80;80.10
1175;DHT22;576;48.418;10.074;2023-09-19T04:16:09;21.80;80.70
1175;DHT22;576;48.418;10.074;2023-09-19T04:18:38;21.80;80.20
1175;DHT22;576;48.418;10.074;2023-09-19T04:21:08;21.90;80.20
1175;DHT22;576;48.418;10.074;2023-09-19T04:23:36;21.90;80.30
1175;DHT22;576;48.418;10.074;2023-09-19T04:26:04;22.00;80.30
1175;DHT22;576;48.418;10.074;2023-09-19T04:28:35;22.10;79.50
1175;DHT22;576;48.418;10.074;2023-09-19T04:31:05;22.00;79.90
1175;DHT22;576;48.418;10.074;2023-09-19T04:33:35;22.00;79.80
1175;DHT22;576;48.418;10.074;2023-09-19T04:36:04;21.90;80.00
1175;DHT22;576;48.418;10.074;2023-09-19T04:38:54;21.90;80.30
1175;DHT22;576;48.418;10.074;2023-09-19T04:41:22;21.80;80.10
1175;DHT22;576;48.418;10.074;2023-09-19T04:43:52;21.90;80.30
1175;DHT22;576;48.418;10.074;2023-09-19T04:46:22;21.90;80.00
1175;DHT22;576;48.418;10.074;2023-09-19T04:48:51;21.80;80.10
1175;DHT22;576;48.418;10.074;2023-09-19T04:51:19;21.80;80.40
1175;DHT22;576;48.418;10.074;2023-09-19T04:53:48;21.80;80.20
1175;DHT22;576;48.418;10.074;2023-09-19T04:56:16;21.80;80.10
1175;DHT22;576;48.418;10.074;2023-09-19T04:58:44;21.90;79.90
1175;DHT22;576;48.418;10.074;2023-09-19T05:01:15;21.90;79.80
1175;DHT22;576;48.418;10.074;2023-09-19T05:03:44;21.90;80.30
1175;DHT22;576;48.418;10.074;2023-09-19T05:06:16;22.00;80.00
1175;DHT22;576;48.418;10.074;2023-09-19T05:08:44;22.00;80.10
1175;DHT22;576;48.418;10.074;2023-09-19T05:11:12;22.00;80.10
1175;DHT22;576;48.418;10.074;2023-09-19T05:13:41;22.10;79.90
1175;DHT22;576;48.418;10.074;2023-09-19T05:16:10;22.00;79.70
1175;DHT22;576;48.418;10.074;2023-09-19T05:18:40;22.00;79.90
1175;DHT22;576;48.418;10.074;2023-09-19T05:21:09;21.90;79.90
1175;DHT22;576;48.418;10.074;2023-09-19T05:23:37;21.90;80.40
1175;DHT22;576;48.418;10.074;2023-09-19T05:26:05;21.90;79.80
1175;DHT22;576;48.418;10.074;2023-09-19T05:28:34;21.90;79.80
1175;DHT22;576;48.418;10.074;2023-09-19T05:31:02;22.00;79.70
1175;DHT22;576;48.418;10.074;2023-09-19T05:33:31;21.90;80.10
1175;DHT22;576;48.418;10.074;2023-09-19T05:36:01;21.90;80.00
1175;DHT22;576;48.418;10.074;2023-09-19T05:38:29;21.90;80.30
1175;DHT22;576;48.418;10.074;2023-09-19T05:40:59;22.00;80.20
1175;DHT22;576;48.418;10.074;2023-09-19T05:43:29;22.10;79.80
1175;DHT22;576;48.418;10.074;2023-09-19T05:46:00;22.10;79.60
1175;DHT22;576;48.418;10.074;2023-09-19T05:48:30;22.10;79.30
1175;DHT22;576;48.418;10.074;2023-09-19T05:50:58;22.10;79.70
1175;DHT22;576;48.418;10.074;2023-09-19T05:53:29;22.10;79.50
1175;DHT22;576;48.418;10.074;2023-09-19T05:55:57;22.20;79.30
1175;DHT22;576;48.418;10.074;2023-09-19T05:58:28;22.20;78.90
1175;DHT22;576;48.418;10.074;2023-09-19T06:00:56;22.20;79.10
1175;DHT22;576;48.418;10.074;2023-09-19T06:03:24;22.20;78.80
1175;DHT22;576;48.418;10.074;2023-09-19T06:05:53;22.20;79.40
1175;DHT22;576;48.418;10.074;2023-09-19T06:08:24;22.10;78.80
1175;DHT22;576;48.418;10.074;2023-09-19T06:10:54;21.80;79.30
1175;DHT22;576;48.418;10.074;2023-09-19T06:13:22;21.50;79.30
1175;DHT22;576;48.418;10.074;2023-09-19T06:15:54;21.20;80.20
1175;DHT22;576;48.418;10.074;2023-09-19T06:18:23;21.00;80.00
1175;DHT22;576;48.418;10.074;2023-09-19T06:20:53;20.90;82.60
1175;DHT22;576;48.418;10.074;2023-09-19T06:23:22;21.00;81.90
1175;DHT22;576;48.418;10.074;2023-09-19T06:25:51;21.20;81.40
1175;DHT22;576;48.418;10.074;2023-09-19T06:28:21;21.30;80.60
1175;DHT22;576;48.418;10.074;2023-09-19T06:30:52;21.30;81.10
1175;DHT22;576;48.418;10.074;2023-09-19T06:33:21;21.20;79.40
1175;DHT22;576;48.418;10.074;2023-09-19T06:35:49;21.00;80.20
1175;DHT22;576;48.418;10.074;2023-09-19T06:38:25;20.90;80.90
1175;DHT22;576;48.418;10.074;2023-09-19T06:40:54;20.90;81.00
1175;DHT22;576;48.418;10.074;2023-09-19T06:43:24;21.00;80.60
1175;DHT22;576;48.418;10.074;2023-09-19T06:45:53;20.90;80.70
1175;DHT22;576;48.418;10.074;2023-09-19T06:48:23;20.90;80.50
1175;DHT22;576;48.418;10.074;2023-09-19T06:50:53;21.00;79.90
1175;DHT22;576;48.418;10.074;2023-09-19T06:53:22;20.90;80.10
1175;DHT22;576;48.418;10.074;2023-09-19T06:55:51;20.90;80.20
1175;DHT22;576;48.418;10.074;2023-09-19T06:58:20;20.70;80.30
1175;DHT22;576;48.418;10.074;2023-09-19T07:00:49;20.50;80.20
1175;DHT22;576;48.418;10.074;2023-09-19T07:03:18;20.40;81.60
1175;DHT22;576;48.418;10.074;2023-09-19T07:05:48;20.40;81.50
1175;DHT22;576;48.418;10.074;2023-09-19T07:08:16;20.40;81.60
1175;DHT22;576;48.418;10.074;2023-09-19T07:10:46;20.40;81.80
1175;DHT22;576;48.418;10.074;2023-09-19T07:13:16;20.50;81.40
1175;DHT22;576;48.418;10.074;2023-09-19T07:15:45;20.50;81.30
1175;DHT22;576;48.418;10.074;2023-09-19T07:18:18;20.50;81.70
1175;DHT22;576;48.418;10.074;2023-09-19T07:20:47;20.60;81.50
1175;DHT22;576;48.418;10.074;2023-09-19T07:23:19;20.70;81.40
1175;DHT22;576;48.418;10.074;2023-09-19T07:25:49;20.70;80.80
1175;DHT22;576;48.418;10.074;2023-09-19T07:28:17;20.70;81.10
1175;DHT22;576;48.418;10.074;2023-09-19T07:30:46;20.80;81.20
1175;DHT22;576;48.418;10.074;2023-09-19T07:33:14;20.90;81.20
1175;DHT22;576;48.418;10.074;2023-09-19T07:35:46;20.90;81.40
1175;DHT22;576;48.418;10.074;2023-09-19T07:38:15;20.80;80.50
1175;DHT22;576;48.418;10.074;2023-09-19T07:40:44;20.80;81.40
1175;DHT22;576;48.418;10.074;2023-09-19T07:43:13;20.70;81.00
1175;DHT22;576;48.418;10.074;2023-09-19T07:45:41;20.70;80.80
1175;DHT22;576;48.418;10.074;2023-09-19T07:48:10;20.70;80.60
1175;DHT22;576;48.418;10.074;2023-09-19T07:50:41;20.80;80.10
1175;DHT22;576;48.418;10.074;2023-09-19T07:53:13;20.80;80.20
1175;DHT22;576;48.418;10.074;2023-09-19T07:55:42;21.00;80.90
1175;DHT22;576;48.418;10.074;2023-09-19T07:58:15;21.10;79.90
1175;DHT22;576;48.418;10.074;2023-09-19T08:00:43;21.20;80.00
1175;DHT22;576;48.418;10.074;2023-09-19T08:03:13;21.20;79.20
1175;DHT22;576;48.418;10.074;2023-09-19T08:05:44;21.30;79.10
1175;DHT22;576;48.418;10.074;2023-09-19T08:08:14;21.30;79.20
1175;DHT22;576;48.418;10.074;2023-09-19T08:10:42;21.30;78.80
1175;DHT22;576;48.418;10.074;2023-09-19T08:13:13;21.20;79.00
1175;DHT22;576;48.418;10.074;2023-09-19T08:15:44;21.20;78.80
1175;DHT22;576;48.418;10.074;2023-09-19T08:18:14;21.30;79.20
1175;DHT22;576;48.418;10.074;2023-09-19T08:20:42;21.30;78.80
1175;DHT22;576;48.418;10.074;2023-09-19T08:23:14;21.40;79.20
1175;DHT22;576;48.418;10.074;2023-09-19T08:25:44;21.30;78.70
1175;DHT22;576;48.418;10.074;2023-09-19T08:28:12;21.20;79.20
1175;DHT22;576;48.418;10.074;2023-09-19T08:30:45;21.30;78.90
1175;DHT22;576;48.418;10.074;2023-09-19T08:33:13;21.40;77.90
1175;DHT22;576;48.418;10.074;2023-09-19T08:35:43;21.40;78.00
1175;DHT22;576;48.418;10.074;2023-09-19T08:38:14;21.50;77.00
1175;DHT22;576;48.418;10.074;2023-09-19T08:40:42;21.50;76.90
1175;DHT22;576;48.418;10.074;2023-09-19T08:43:10;21.50;76.40
1175;DHT22;576;48.418;10.074;2023-09-19T08:45:39;21.50;76.30
1175;DHT22;576;48.418;10.074;2023-09-19T08:48:17;21.50;75.70
1175;DHT22;576;48.418;10.074;2023-09-19T08:50:49;21.60;76.00
1175;DHT22;576;48.418;10.074;2023-09-19T08:53:26;21.60;76.50
1175;DHT22;576;48.418;10.074;2023-09-19T08:55:56;21.70;76.10
1175;DHT22;576;48.418;10.074;2023-09-19T08:58:29;21.80;76.10
1175;DHT22;576;48.418;10.074;2023-09-19T09:00:59;22.00;75.30
1175;DHT22;576;48.418;10.074;2023-09-19T09:03:32;22.00;74.40
1175;DHT22;576;48.418;10.074;2023-09-19T09:06:02;22.00;74.60
1175;DHT22;576;48.418;10.074;2023-09-19T09:08:32;21.90;73.70
1175;DHT22;576;48.418;10.074;2023-09-19T09:11:01;21.90;74.50
1175;DHT22;576;48.418;10.074;2023-09-19T09:13:29;21.90;74.90
1175;DHT22;576;48.418;10.074;2023-09-19T09:15:58;22.00;74.00
1175;DHT22;576;48.418;10.074;2023-09-19T09:18:26;22.10;74.00
1175;DHT22;576;48.418;10.074;2023-09-19T09:20:56;22.20;73.90
1175;DHT22;576;48.418;10.074;2023-09-19T09:23:26;22.20;73.60
1175;DHT22;576;48.418;10.074;2023-09-19T09:25:58;22.10;73.30
1175;DHT22;576;48.418;10.074;2023-09-19T09:28:31;22.00;73.50
1175;DHT22;576;48.418;10.074;2023-09-19T09:31:00;22.00;73.70
1175;DHT22;576;48.418;10.074;2023-09-19T09:33:30;22.00;73.90
1175;DHT22;576;48.418;10.074;2023-09-19T09:35:59;22.10;73.40
1175;DHT22;576;48.418;10.074;2023-09-19T09:38:30;22.10;73.60
1175;DHT22;576;48.418;10.074;2023-09-19T09:41:12;22.10;74.00
1175;DHT22;576;48.418;10.074;2023-09-19T09:43:54;22.20;73.20
1175;DHT22;576;48.418;10.074;2023-09-19T09:46:22;22.10;72.00
1175;DHT22;576;48.418;10.074;2023-09-19T09:49:10;22.10;72.60
1175;DHT22;576;48.418;10.074;2023-09-19T09:51:48;22.10;72.30
1175;DHT22;576;48.418;10.074;2023-09-19T09:54:28;22.10;71.80
1175;DHT22;576;48.418;10.074;2023-09-19T09:57:04;22.10;72.50
1175;DHT22;576;48.418;10.074;2023-09-19T09:59:46;22.10;72.20
1175;DHT22;576;48.418;10.074;2023-09-19T10:02:14;22.10;72.80
1175;DHT22;576;48.418;10.074;2023-09-19T10:04:47;22.20;72.20
1175;DHT22;576;48.418;10.074;2023-09-19T10:07:36;22.20;72.10
1175;DHT22;576;48.418;10.074;2023-09-19T10:10:11;22.30;72.50
1175;DHT22;576;48.418;10.074;2023-09-19T10:12:54;22.40;72.60
1175;DHT22;576;48.418;10.074;2023-09-19T10:15:26;22.50;71.90
1175;DHT22;576;48.418;10.074;2023-09-19T10:18:01;22.50;72.20
1175;DHT22;576;48.418;10.074;2023-09-19T10:20:36;22.50;71.80
1175;DHT22;576;48.418;10.074;2023-09-19T10:23:07;22.50;72.00
1175;DHT22;576;48.418;10.074;2023-09-19T10:25:41;22.80;71.40
1175;DHT22;576;48.418;10.074;2023-09-19T10:28:13;22.90;69.90
1175;DHT22;576;48.418;10.074;2023-09-19T10:30:42;22.80;69.70
1175;DHT22;576;48.418;10.074;2023-09-19T10:33:13;22.70;70.00
1175;DHT22;576;48.418;10.074;2023-09-19T10:35:43;22.70;69.40
1175;DHT22;576;48.418;10.074;2023-09-19T10:38:14;22.60;68.80
1175;DHT22;576;48.418;10.074;2023-09-19T10:40:48;22.70;68.40
1175;DHT22;576;48.418;10.074;2023-09-19T10:43:20;22.60;68.00
1175;DHT22;576;48.418;10.074;2023-09-19T10:45:50;22.70;68.10
1175;DHT22;576;48.418;10.074;2023-09-19T10:48:20;22.90;68.30
1175;DHT22;576;48.418;10.074;2023-09-19T10:50:58;23.20;67.70
1175;DHT22;576;48.418;10.074;2023-09-19T10:53:41;23.60;67.10
1175;DHT22;576;48.418;10.074;2023-09-19T10:56:18;23.90;64.90
1175;DHT22;576;48.418;10.074;2023-09-19T10:58:48;24.10;64.40
1175;DHT22;576;48.418;10.074;2023-09-19T11:01:18;24.30;64.00
1175;DHT22;576;48.418;10.074;2023-09-19T11:03:48;24.30;63.20
1175;DHT22;576;48.418;10.074;2023-09-19T11:06:39;24.40;63.30
1175;DHT22;576;48.418;10.074;2023-09-19T11:09:08;24.60;62.80
1175;DHT22;576;48.418;10.074;2023-09-19T11:11:53;24.60;63.80
1175;DHT22;576;48.418;10.074;2023-09-19T11:14:41;24.70;62.40
1175;DHT22;576;48.418;10.074;2023-09-19T11:17:40;24.90;62.90
1175;DHT22;576;48.418;10.074;2023-09-19T11:20:20;25.00;62.40
1175;DHT22;576;48.418;10.074;2023-09-19T11:23:18;25.20;61.60
1175;DHT22;576;48.418;10.074;2023-09-19T11:25:46;25.20;60.80
1175;DHT22;576;48.418;10.074;2023-09-19T11:28:35;25.30;61.50
1175;DHT22;576;48.418;10.074;2023-09-19T11:34:41;25.50;60.00
1175;DHT22;576;48.418;10.074;2023-09-19T11:40:45;25.30;62.10
1175;DHT22;576;48.418;10.074;2023-09-19T11:43:32;25.10;61.20
1175;DHT22;576;48.418;10.074;2023-09-19T11:46:20;25.00;61.10
1175;DHT22;576;48.418;10.074;2023-09-19T11:48:49;25.20;61.30
1175;DHT22;576;48.418;10.074;2023-09-19T11:51:20;25.30;61.50
1175;DHT22;576;48.418;10.074;2023-09-19T11:53:55;25.50;61.00
1175;DHT22;576;48.418;10.074;2023-09-19T11:56:25;25.60;60.60
1175;DHT22;576;48.418;10.074;2023-09-19T11:58:55;25.70;59.90
1175;DHT22;576;48.418;10.074;2023-09-19T12:01:29;25.70;58.80
1175;DHT22;576;48.418;10.074;2023-09-19T12:04:02;25.80;59.60
1175;DHT22;576;48.418;10.074;2023-09-19T12:06:34;25.90;57.90
1175;DHT22;576;48.418;10.074;2023-09-19T12:09:05;26.00;57.50
1175;DHT22;576;48.418;10.074;2023-09-19T12:11:42;26.00;57.70
1175;DHT22;576;48.418;10.074;2023-09-19T12:14:20;25.90;57.50
1175;DHT22;576;48.418;10.074;2023-09-19T12:16:53;25.70;57.20
1175;DHT22;576;48.418;10.074;2023-09-19T12:19:23;25.70;57.60
1175;DHT22;576;48.418;10.074;2023-09-19T12:21:57;25.80;58.10
1175;DHT22;576;48.418;10.074;2023-09-19T12:24:27;25.80;58.80
1175;DHT22;576;48.418;10.074;2023-09-19T12:27:03;25.90;58.10
1175;DHT22;576;48.418;10.074;2023-09-19T12:29:43;25.90;58.50
1175;DHT22;576;48.418;10.074;2023-09-19T12:32:12;26.00;58.00
1175;DHT22;576;48.418;10.074;2023-09-19T12:34:50;26.10;57.60
1175;DHT22;576;48.418;10.074;2023-09-19T12:37:22;26.20;57.10
1175;DHT22;576;48.418;10.074;2023-09-19T12:40:04;26.30;57.40
1175;DHT22;576;48.418;10.074;2023-09-19T12:42:47;26.30;57.20
1175;DHT22;576;48.418;10.074;2023-09-19T12:45:16;26.40;57.10
1175;DHT22;576;48.418;10.074;2023-09-19T12:51:02;26.40;56.90
1175;DHT22;576;48.418;10.074;2023-09-19T12:53:36;26.30;57.20
1175;DHT22;576;48.418;10.074;2023-09-19T12:56:09;26.00;57.00
1175;DHT22;576;48.418;10.074;2023-09-19T12:58:58;25.70;57.60
1175;DHT22;576;48.418;10.074;2023-09-19T13:01:28;25.70;57.50
1175;DHT22;576;48.418;10.074;2023-09-19T13:04:18;25.70;57.10
1175;DHT22;576;48.418;10.074;2023-09-19T13:06:49;25.80;57.40
1175;DHT22;576;48.418;10.074;2023-09-19T13:09:21;25.90;56.90
1175;DHT22;576;48.418;10.074;2023-09-19T13:11:52;26.00;56.70
1175;DHT22;576;48.418;10.074;2023-09-19T13:14:21;26.10;57.10
1175;DHT22;576;48.418;10.074;2023-09-19T13:16:55;26.20;57.30
1175;DHT22;576;48.418;10.074;2023-09-19T13:19:41;26.20;56.70
1175;DHT22;576;48.418;10.074;2023-09-19T13:22:39;26.10;56.70
1175;DHT22;576;48.418;10.074;2023-09-19T13:25:10;26.20;56.20
1175;DHT22;576;48.418;10.074;2023-09-19T13:27:42;26.20;55.80
1175;DHT22;576;48.418;10.074;2023-09-19T13:30:13;26.30;56.10
1175;DHT22;576;48.418;10.074;2023-09-19T13:32:42;26.30;56.00
1175;DHT22;576;48.418;10.074;2023-09-19T13:35:11;26.30;55.50
1175;DHT22;576;48.418;10.074;2023-09-19T13:37:41;26.30;55.00
1175;DHT22;576;48.418;10.074;2023-09-19T13:40:16;26.30;55.40
1175;DHT22;576;48.418;10.074;2023-09-19T13:42:45;26.30;55.40
1175;DHT22;576;48.418;10.074;2023-09-19T13:45:13;26.30;55.40
1175;DHT22;576;48.418;10.074;2023-09-19T13:47:44;26.20;55.60
1175;DHT22;576;48.418;10.074;2023-09-19T13:50:12;26.10;57.00
1175;DHT22;576;48.418;10.074;2023-09-19T13:52:41;26.10;56.90
1175;DHT22;576;48.418;10.074;2023-09-19T13:55:09;26.10;56.80
1175;DHT22;576;48.418;10.074;2023-09-19T13:57:39;26.10;56.60
1175;DHT22;576;48.418;10.074;2023-09-19T14:00:08;26.20;56.00
1175;DHT22;576;48.418;10.074;2023-09-19T14:02:40;26.20;55.60
1175;DHT22;576;48.418;10.074;2023-09-19T14:05:10;26.30;56.30
1175;DHT22;576;48.418;10.074;2023-09-19T14:07:39;26.20;56.80
1175;DHT22;576;48.418;10.074;2023-09-19T14:10:09;26.20;57.00
1175;DHT22;576;48.418;10.074;2023-09-19T14:12:39;26.20;56.40
1175;DHT22;576;48.418;10.074;2023-09-19T14:15:09;26.30;57.00
1175;DHT22;576;48.418;10.074;2023-09-19T14:17:38;26.40;56.90
1175;DHT22;576;48.418;10.074;2023-09-19T14:20:08;26.50;56.30
1175;DHT22;576;48.418;10.074;2023-09-19T14:22:38;26.50;57.00
1175;DHT22;576;48.418;10.074;2023-09-19T14:25:07;26.60;56.30
1175;DHT22;576;48.418;10.074;2023-09-19T14:27:36;26.60;56.80
1175;DHT22;576;48.418;10.074;2023-09-19T14:30:07;26.50;56.90
1175;DHT22;576;48.418;10.074;2023-09-19T14:32:36;26.40;56.20
1175;DHT22;576;48.418;10.074;2023-09-19T14:35:05;26.50;56.30
1175;DHT22;576;48.418;10.074;2023-09-19T14:37:34;26.50;56.10
1175;DHT22;576;48.418;10.074;2023-09-19T14:40:03;26.60;56.10
1175;DHT22;576;48.418;10.074;2023-09-19T14:42:36;26.60;56.60
1175;DHT22;576;48.418;10.074;2023-09-19T14:45:07;26.60;57.50
1175;DHT22;576;48.418;10.074;2023-09-19T14:47:36;26.70;56.00
1175;DHT22;576;48.418;10.074;2023-09-19T14:50:05;26.80;56.80
1175;DHT22;576;48.418;10.074;2023-09-19T14:52:34;26.90;56.80
1175;DHT22;576;48.418;10.074;2023-09-19T14:55:03;26.90;56.00
1175;DHT22;576;48.418;10.074;2023-09-19T14:57:33;27.00;56.80
1175;DHT22;576;48.418;10.074;2023-09-19T15:00:01;27.00;56.60
1175;DHT22;576;48.418;10.074;2023-09-19T15:02:33;26.90;56.10
1175;DHT22;576;48.418;10.074;2023-09-19T15:05:02;26.80;56.10
1175;DHT22;576;48.418;10.074;2023-09-19T15:07:31;26.80;56.20
1175;DHT22;576;48.418;10.074;2023-09-19T15:09:59;26.80;56.40
1175;DHT22;576;48.418;10.074;2023-09-19T15:12:27;26.80;56.40
1175;DHT22;576;48.418;10.074;2023-09-19T15:14:56;26.80;56.50
1175;DHT22;576;48.418;10.074;2023-09-19T15:17:24;26.90;56.30
1175;DHT22;576;48.418;10.074;2023-09-19T15:19:54;26.90;56.20
1175;DHT22;576;48.418;10.074;2023-09-19T15:22:22;26.80;56.60
1175;DHT22;576;48.418;10.074;2023-09-19T15:24:51;26.70;56.50
1175;DHT22;576;48.418;10.074;2023-09-19T15:27:19;26.60;56.30
1175;DHT22;576;48.418;10.074;2023-09-19T15:29:48;26.50;56.80
1175;DHT22;576;48.418;10.074;2023-09-19T15:32:16;26.60;58.20
1175;DHT22;576;48.418;10.074;2023-09-19T15:34:44;26.70;56.80
1175;DHT22;576;48.418;10.074;2023-09-19T15:37:14;26.80;57.20
1175;DHT22;576;48.418;10.074;2023-09-19T15:39:42;26.80;56.70
1175;DHT22;576;48.418;10.074;2023-09-19T15:42:11;26.90;56.60
1175;DHT22;576;48.418;10.074;2023-09-19T15:44:40;27.00;56.70
1175;DHT22;576;48.418;10.074;2023-09-19T15:47:08;26.90;57.60
1175;DHT22;576;48.418;10.074;2023-09-19T15:49:37;27.00;56.90
1175;DHT22;576;48.418;10.074;2023-09-19T15:52:05;27.00;56.90
1175;DHT22;576;48.418;10.074;2023-09-19T15:54:36;27.00;56.40
1175;DHT22;576;48.418;10.074;2023-09-19T15:57:09;26.90;56.90
1175;DHT22;576;48.418;10.074;2023-09-19T15:59:40;26.80;56.40
1175;DHT22;576;48.418;10.074;2023-09-19T16:02:09;26.70;56.80
1175;DHT22;576;48.418;10.074;2023-09-19T16:04:37;26.70;56.50
1175;DHT22;576;48.418;10.074;2023-09-19T16:07:06;26.70;56.60
1175;DHT22;576;48.418;10.074;2023-09-19T16:09:36;26.70;57.20
1175;DHT22;576;48.418;10.074;2023-09-19T16:12:05;26.70;57.40
1175;DHT22;576;48.418;10.074;2023-09-19T16:14:35;26.70;57.80
1175;DHT22;576;48.418;10.074;2023-09-19T16:17:03;26.60;58.20
1175;DHT22;576;48.418;10.074;2023-09-19T16:19:36;26.50;58.40
1175;DHT22;576;48.418;10.074;2023-09-19T16:22:04;26.40;58.80
1175;DHT22;576;48.418;10.074;2023-09-19T16:24:35;26.30;59.00
1175;DHT22;576;48.418;10.074;2023-09-19T16:27:05;26.20;59.00
1175;DHT22;576;48.418;10.074;2023-09-19T16:29:33;26.10;59.60
1175;DHT22;576;48.418;10.074;2023-09-19T16:32:03;26.10;59.60
1175;DHT22;576;48.418;10.074;2023-09-19T16:34:31;26.00;59.70
1175;DHT22;576;48.418;10.074;2023-09-19T16:37:00;26.00;59.50
1175;DHT22;576;48.418;10.074;2023-09-19T16:39:29;26.00;60.00